Time;durP1;ratioP1;P1;durP2;ratioP2;P2;SDS_P1;SDS_P2;PMS_P1;PMS_P2;Temp;Humidity;BMP_temperature;BMP_pressure;BME280_temperature;BME280_humidity;BME280_pressure;Samples;Min_cycle;Max_cycle;Signal;HPM_P1;HPM_P2
2022/01/22 00:01:26;;;;;;;19.50;10.20;;;;;;;-1.91;78.35;99813.33;206937;1316;138905;-74
2022/01/22 00:06:29;;;;;;;30.30;12.80;;;;;;;-1.89;78.52;99810.05;208290;1316;139959;-70
2022/01/22 00:11:50;;;;;;;46.60;19.70;;;;;;;-1.87;78.52;99812.09;207894;1316;139440;-76
2022/01/22 00:16:58;;;;;;;12.50;7.70;;;;;;;-1.82;78.44;99813.26;207479;1318;139951;-77
2022/01/22 00:22:03;;;;;;;12.30;6.40;;;;;;;-1.76;78.44;99816.00;207786;1316;140301;-76
2022/01/22 00:27:07;;;;;;;11.60;7.40;;;;;;;-1.80;78.51;99816.40;207175;1317;140353;-73
2022/01/22 00:32:09;;;;;;;14.50;9.20;;;;;;;-1.89;78.37;99815.11;207499;1317;139394;-71
2022/01/22 00:37:12;;;;;;;13.80;9.40;;;;;;;-2.02;78.24;99818.96;208894;1316;140975;-71
2022/01/22 00:42:16;;;;;;;18.20;10.20;;;;;;;-2.07;78.20;99824.38;208543;1319;141302;-77
2022/01/22 00:47:19;;;;;;;16.10;7.90;;;;;;;-2.13;78.15;99823.70;208754;1316;140664;-72
2022/01/22 00:52:23;;;;;;;12.70;6.50;;;;;;;-2.18;78.19;99832.40;207626;1316;141402;-69
2022/01/22 00:57:26;;;;;;;11.40;8.20;;;;;;;-2.27;78.02;99834.88;209107;1315;141193;-67
2022/01/22 01:02:29;;;;;;;11.30;6.10;;;;;;;-2.41;77.85;99835.67;208137;1316;140480;-78
2022/01/22 01:07:37;;;;;;;14.50;6.50;;;;;;;-2.44;78.23;99834.70;208349;1316;140176;-75
2022/01/22 01:12:41;;;;;;;11.60;6.80;;;;;;;-2.51;78.02;99835.85;208044;1318;140800;-75
2022/01/22 01:33:52;;;;;;;10.10;6.40;;;;;;;-2.80;78.12;99839.09;208147;1315;141406;-72
2022/01/22 01:39:00;;;;;;;14.10;8.60;;;;;;;-2.87;78.02;99841.08;207944;1316;142725;-73
2022/01/22 01:44:04;;;;;;;7.90;5.60;;;;;;;-2.99;78.00;99838.40;207637;1317;140585;-69
2022/01/22 01:49:08;;;;;;;9.90;5.50;;;;;;;-3.16;78.04;99837.55;207165;1318;139986;-71
2022/01/22 01:59:28;;;;;;;12.20;7.30;;;;;;;-3.37;78.24;99833.63;207160;1318;140086;-68
2022/01/22 02:04:32;;;;;;;8.10;5.90;;;;;;;-3.43;78.12;99831.02;207304;1316;139599;-69
2022/01/22 02:09:35;;;;;;;9.70;6.60;;;;;;;-3.49;78.42;99826.60;207147;1316;139255;-69
2022/01/22 02:25:09;;;;;;;8.00;5.30;;;;;;;-3.63;78.47;99829.65;207492;1317;140068;-69
2022/01/22 02:30:37;;;;;;;7.70;4.90;;;;;;;-3.67;78.56;99828.27;207015;1316;139544;-64
2022/01/22 02:35:46;;;;;;;6.90;4.20;;;;;;;-3.70;78.69;99831.34;208731;1319;139436;-66
2022/01/22 02:40:54;;;;;;;8.30;3.90;;;;;;;-3.80;78.65;99833.23;208514;1316;140615;-71
2022/01/22 02:46:00;;;;;;;13.70;8.00;;;;;;;-3.90;78.62;99832.48;208129;1318;139029;-69
2022/01/22 02:51:03;;;;;;;6.20;4.50;;;;;;;-3.94;78.67;99834.17;208145;1316;140935;-71
2022/01/22 02:56:07;;;;;;;6.40;4.60;;;;;;;-3.91;78.84;99831.36;208240;1315;140099;-72
2022/01/22 03:01:10;;;;;;;6.50;4.50;;;;;;;-3.93;78.98;99831.66;208799;1318;140386;-70
2022/01/22 03:06:13;;;;;;;8.00;3.80;;;;;;;-3.98;78.87;99832.12;209145;1316;139348;-69
2022/01/22 03:11:20;;;;;;;11.80;6.60;;;;;;;-4.03;78.92;99837.86;208809;1319;139413;-72
2022/01/22 03:22:16;;;;;;;7.80;4.20;;;;;;;-4.14;78.78;99840.73;207408;1318;139131;-72
2022/01/22 03:32:13;;;;;;;6.10;4.80;;;;;;;-4.08;79.12;99860.50;208047;1316;139449;-68
2022/01/22 03:37:16;;;;;;;8.10;3.80;;;;;;;-4.10;79.24;99863.57;208581;1317;141599;-73
2022/01/22 03:42:21;;;;;;;6.00;4.60;;;;;;;-4.08;79.55;99871.05;207723;1316;139298;-65
2022/01/22 03:47:26;;;;;;;7.00;3.70;;;;;;;-4.06;79.45;99875.58;207890;1316;139492;-65
2022/01/22 03:52:33;;;;;;;6.00;4.40;;;;;;;-4.02;79.49;99882.51;208005;1317;139163;-65
2022/01/22 03:57:36;;;;;;;3.50;3.10;;;;;;;-3.95;79.64;99893.30;207844;1317;139911;-72
2022/01/22 04:13:02;;;;;;;4.20;3.70;;;;;;;-4.00;79.50;99904.41;207806;1318;139496;-71
2022/01/22 04:28:50;;;;;;;6.60;2.80;;;;;;;-4.01;79.72;99915.59;208956;1316;139614;-71
2022/01/22 04:33:52;;;;;;;9.70;5.50;;;;;;;-4.01;79.81;99922.85;207760;1317;140089;-65
2022/01/22 04:38:57;;;;;;;4.30;2.70;;;;;;;-4.02;79.89;99925.08;207011;1317;138933;-68
2022/01/22 04:44:03;;;;;;;25.90;11.30;;;;;;;-4.07;79.87;99927.04;208245;1317;141176;-66
2022/01/22 04:52:34;;;;;;;6.10;4.00;;;;;;;-4.11;79.82;99928.76;207813;1316;140329;-67
2022/01/22 05:00:05;;;;;;;9.10;4.00;;;;;;;-4.10;79.85;99948.52;208191;1316;140947;-69
2022/01/22 05:05:09;;;;;;;5.30;3.90;;;;;;;-4.12;79.78;99950.88;209160;1317;139976;-75
2022/01/22 05:10:12;;;;;;;8.40;3.90;;;;;;;-4.14;79.72;99952.13;209406;1316;140997;-75
2022/01/22 05:15:18;;;;;;;3.40;2.80;;;;;;;-4.15;79.90;99948.36;206669;1318;3614656;-76
2022/01/22 05:20:31;;;;;;;7.90;3.10;;;;;;;-4.14;79.95;99948.29;208048;1317;140935;-74
2022/01/22 05:25:49;;;;;;;6.50;4.20;;;;;;;-4.11;79.75;99959.13;207893;1316;141807;-76
2022/01/22 05:31:08;;;;;;;5.80;3.10;;;;;;;-4.11;79.69;99966.99;207801;1313;140601;-79
2022/01/22 05:41:39;;;;;;;7.10;2.10;;;;;;;-4.18;79.84;99984.61;207548;1316;139809;-73
2022/01/22 05:46:42;;;;;;;3.00;2.20;;;;;;;-4.20;79.94;99990.66;207455;1317;140114;-74
2022/01/22 05:51:52;;;;;;;5.60;3.40;;;;;;;-4.18;79.98;99989.82;207312;1316;142491;-70
2022/01/22 06:02:18;;;;;;;5.60;2.80;;;;;;;-4.13;80.22;99998.04;207961;1319;140581;-68
2022/01/22 06:07:22;;;;;;;3.80;2.40;;;;;;;-4.14;80.12;100005.89;207216;1316;140107;-68
2022/01/22 06:13:15;;;;;;;8.50;3.00;;;;;;;-4.15;80.15;100013.12;207104;1318;143565;-71
2022/01/22 06:17:50;;;;;;;5.60;3.70;;;;;;;-4.16;80.03;100020.38;207341;1316;140499;-68
2022/01/22 06:22:54;;;;;;;9.30;7.10;;;;;;;-4.12;80.12;100023.11;207162;1317;231054;-70
2022/01/22 06:27:56;;;;;;;2.40;2.10;;;;;;;-4.03;80.13;100031.77;207855;1316;140717;-71
2022/01/22 06:32:59;;;;;;;3.00;2.40;;;;;;;-3.94;80.22;100042.54;206842;1318;142593;-68
2022/01/22 06:38:10;;;;;;;4.40;2.40;;;;;;;-3.87;80.24;100055.29;207118;1316;142571;-70
2022/01/22 06:43:13;;;;;;;4.40;2.70;;;;;;;-3.83;80.09;100051.94;207925;1318;141484;-67
2022/01/22 06:48:15;;;;;;;8.20;3.10;;;;;;;-3.77;80.08;100060.86;207443;1315;141558;-71
2022/01/22 06:53:18;;;;;;;13.00;6.10;;;;;;;-3.66;79.96;100068.35;208970;1318;141239;-73
2022/01/22 06:58:25;;;;;;;5.90;3.40;;;;;;;-3.53;80.03;100068.23;207871;1316;140746;-71
2022/01/22 07:03:30;;;;;;;4.70;2.50;;;;;;;-3.42;80.19;100082.15;207406;1316;140638;-72
2022/01/22 07:08:34;;;;;;;2.40;1.20;;;;;;;-3.32;79.97;100090.70;208501;1317;139593;-72
2022/01/22 07:13:40;;;;;;;10.10;2.60;;;;;;;-3.23;79.91;100096.25;208623;1318;141916;-72
2022/01/22 07:18:43;;;;;;;4.30;2.90;;;;;;;-3.05;79.60;100106.48;209346;1319;141119;-73
2022/01/22 07:28:51;;;;;;;6.20;2.70;;;;;;;-2.76;79.40;100123.00;207717;1318;230978;-73
2022/01/22 07:33:54;;;;;;;6.70;3.00;;;;;;;-2.66;79.61;100117.65;207036;1316;139914;-71
2022/01/22 07:38:57;;;;;;;5.30;2.40;;;;;;;-2.52;79.25;100127.52;207315;1318;141277;-70
2022/01/22 07:44:05;;;;;;;7.70;4.60;;;;;;;-2.40;79.03;100126.92;207924;1316;140980;-68
2022/01/22 07:49:09;;;;;;;4.70;3.30;;;;;;;-2.32;78.82;100135.64;207786;1316;141435;-72
2022/01/22 07:54:13;;;;;;;3.90;2.80;;;;;;;-2.20;78.63;100151.14;208690;1317;140032;-77
2022/01/22 07:59:18;;;;;;;3.00;2.00;;;;;;;-2.07;78.52;100150.80;208593;1316;139802;-72
2022/01/22 08:04:34;;;;;;;3.10;2.40;;;;;;;-1.97;78.08;100156.14;207930;1317;140089;-68
2022/01/22 08:09:38;;;;;;;4.70;3.00;;;;;;;-1.91;78.09;100160.08;207972;1316;141053;-75
2022/01/22 08:14:44;;;;;;;6.90;3.50;;;;;;;-1.79;77.79;100171.83;207037;1316;140708;-69
2022/01/22 08:19:51;;;;;;;7.50;3.70;;;;;;;-1.70;77.75;100179.52;207186;1316;140937;-69
2022/01/22 08:24:57;;;;;;;6.10;3.00;;;;;;;-1.62;77.67;100191.58;207442;1319;141422;-69
2022/01/22 08:30:04;;;;;;;5.20;3.20;;;;;;;-1.53;77.46;100199.69;207261;1315;141375;-70
2022/01/22 08:40:37;;;;;;;8.00;3.80;;;;;;;-1.33;76.94;100201.79;208497;1315;139902;-71
2022/01/22 08:45:45;;;;;;;8.70;3.40;;;;;;;-1.23;76.66;100195.09;209186;1316;139600;-72
2022/01/22 08:50:52;;;;;;;7.50;3.20;;;;;;;-1.10;76.48;100181.06;207970;1316;139873;-72
2022/01/22 08:56:19;;;;;;;6.30;2.00;;;;;;;-0.93;75.99;100190.10;208127;1316;141680;-71
2022/01/22 09:01:26;;;;;;;7.00;4.00;;;;;;;-0.80;75.70;100205.57;207784;1318;140098;-78
2022/01/22 09:06:33;;;;;;;2.80;2.00;;;;;;;-0.74;75.50;100212.05;207412;1315;140585;-76
2022/01/22 09:11:43;;;;;;;;;;;;;;;-0.64;75.44;100221.98;209620;1316;150956;-80
2022/01/22 09:16:51;;;;;;;5.50;2.60;;;;;;;-0.61;75.16;100239.93;209654;1315;127433;-76
2022/01/22 09:22:06;;;;;;;5.10;2.80;;;;;;;-0.46;75.18;100245.98;207722;1317;150787;-71
2022/01/22 09:27:12;;;;;;;9.00;4.30;;;;;;;-0.22;74.76;100254.92;209393;1315;140796;-72
2022/01/22 09:32:19;;;;;;;5.60;4.40;;;;;;;-0.03;74.61;100261.78;207442;1315;140996;-79
2022/01/22 09:37:39;;;;;;;4.60;3.10;;;;;;;0.03;74.18;100268.45;209188;1315;140950;-72
2022/01/22 09:42:45;;;;;;;9.70;3.20;;;;;;;0.08;73.64;100271.44;208208;1316;138904;-70
2022/01/22 09:47:50;;;;;;;10.10;3.50;;;;;;;0.15;73.36;100274.86;207754;1315;139585;-69
2022/01/22 09:52:56;;;;;;;5.60;4.00;;;;;;;0.22;73.12;100275.89;208163;1315;139892;-69
2022/01/22 09:57:59;;;;;;;8.20;4.20;;;;;;;0.33;73.27;100281.54;207990;1315;140029;-66
2022/01/22 10:03:02;;;;;;;11.30;4.80;;;;;;;0.32;73.08;100287.21;207550;1315;141971;-68
2022/01/22 10:08:31;;;;;;;12.50;6.80;;;;;;;0.33;72.78;100301.80;207688;1316;140928;-68
2022/01/22 10:14:03;;;;;;;7.40;4.20;;;;;;;0.30;72.57;100305.04;207600;1315;140290;-68
2022/01/22 10:19:36;;;;;;;5.10;2.40;;;;;;;0.18;72.40;100318.31;207224;1316;139840;-73
2022/01/22 10:30:05;;;;;;;9.20;3.60;;;;;;;0.18;72.54;100337.41;207806;1316;139996;-73
2022/01/22 10:35:20;;;;;;;9.70;4.40;;;;;;;0.12;72.59;100336.48;208448;1316;140000;-83
2022/01/22 10:40:49;;;;;;;7.30;4.20;;;;;;;0.06;72.57;100343.14;207394;1316;140175;-72
2022/01/22 10:46:51;;;;;;;7.20;3.20;;;;;;;0.10;72.30;100346.29;207662;1316;139310;-74
2022/01/22 10:51:59;;;;;;;6.70;2.90;;;;;;;0.18;72.22;100346.66;207532;1316;139774;-73
2022/01/22 11:17:44;;;;;;;7.20;4.20;;;;;;;0.40;71.83;100381.73;208294;1318;229924;-74
2022/01/22 11:23:02;;;;;;;4.50;2.60;;;;;;;0.44;71.87;100392.36;207661;1318;142843;-72
2022/01/22 11:28:08;;;;;;;10.50;4.50;;;;;;;0.52;71.37;100397.99;208411;1316;140270;-74
2022/01/22 11:33:24;;;;;;;11.90;4.40;;;;;;;0.59;71.36;100394.95;206737;1318;141295;-77
2022/01/22 11:38:37;;;;;;;6.00;3.50;;;;;;;0.66;71.39;100409.52;207169;1318;140000;-75
2022/01/22 11:44:04;;;;;;;3.90;2.50;;;;;;;0.71;71.15;100410.98;207115;1318;142106;-79
2022/01/22 11:49:28;;;;;;;6.10;3.70;;;;;;;0.68;71.18;100423.14;207240;1318;139891;-69
2022/01/22 11:55:01;;;;;;;10.00;4.80;;;;;;;0.63;71.25;100429.77;206775;1318;139904;-72
2022/01/22 12:00:40;;;;;;;10.20;3.30;;;;;;;0.64;71.08;100442.23;206844;1318;139931;-73
2022/01/22 12:05:57;;;;;;;7.20;3.90;;;;;;;0.64;71.07;100446.80;208197;1318;141127;-67
2022/01/22 12:16:03;;;;;;;8.30;3.10;;;;;;;0.73;70.88;100451.52;207556;1318;141294;-68
2022/01/22 12:26:09;;;;;;;7.30;4.30;;;;;;;0.83;70.78;100463.61;209339;1318;140377;-70
2022/01/22 12:31:19;;;;;;;7.00;2.60;;;;;;;0.85;70.69;100467.92;208151;1318;140155;-69
2022/01/22 12:36:35;;;;;;;7.90;3.40;;;;;;;0.83;70.23;100473.24;209341;1318;140192;-73
2022/01/22 12:46:48;;;;;;;6.70;3.90;;;;;;;0.75;70.32;100474.01;208790;1318;139873;-69
2022/01/22 12:52:09;;;;;;;9.00;3.80;;;;;;;0.74;70.58;100472.22;207820;1318;139919;-70
2022/01/22 12:57:16;;;;;;;9.40;4.90;;;;;;;0.70;70.51;100487.12;207425;1318;141358;-71
2022/01/22 13:02:24;;;;;;;10.60;4.00;;;;;;;0.70;70.51;100491.31;209209;1318;140746;-71
2022/01/22 13:07:28;;;;;;;;;;;;;;;0.74;70.26;100504.77;206673;1320;142500;-73
2022/01/22 13:12:31;;;;;;;6.70;2.90;;;;;;;0.68;70.40;100516.86;207213;1318;634457;-72
2022/01/22 13:17:35;;;;;;;6.40;3.70;;;;;;;0.63;70.38;100521.24;207433;1318;141028;-69
2022/01/22 13:23:02;;;;;;;;;;;;;;;;;;;;;
2022/01/22 13:28:11;;;;;;;9.60;3.10;;;;;;;0.45;70.48;100533.16;206809;1319;141544;-68
2022/01/22 13:33:34;;;;;;;9.60;3.40;;;;;;;0.39;70.52;100544.40;207389;1318;140899;-69
2022/01/22 13:49:34;;;;;;;13.00;5.50;;;;;;;0.25;70.82;100561.10;207155;1315;142313;-67
2022/01/22 13:54:44;;;;;;;8.20;3.80;;;;;;;0.23;70.82;100563.77;206543;1318;139421;-65
2022/01/22 13:59:52;;;;;;;29.80;10.40;;;;;;;0.24;70.73;100568.79;207955;1318;140570;-70
2022/01/22 14:05:28;;;;;;;;;;;;;;;;;;;;;
2022/01/22 14:10:59;;;;;;;12.30;5.50;;;;;;;0.07;71.07;100580.54;207986;1319;140390;-66
2022/01/22 14:16:22;;;;;;;13.00;5.20;;;;;;;0.01;71.27;100591.23;207256;1318;139381;-66
2022/01/22 14:21:29;;;;;;;7.70;3.80;;;;;;;-0.04;71.07;100603.41;208274;1318;141673;-68
2022/01/22 14:26:36;;;;;;;7.70;4.70;;;;;;;-0.01;71.21;100609.11;207477;1318;141930;-70
2022/01/22 14:32:07;;;;;;;;;;;;;;;;;;;;;
2022/01/22 14:37:29;;;;;;;10.10;5.80;;;;;;;-0.02;71.44;100619.19;208895;1316;140462;-68
2022/01/22 14:48:06;;;;;;;10.80;4.50;;;;;;;-0.05;71.74;100640.22;208495;1320;141965;-69
2022/01/22 14:53:10;;;;;;;15.10;5.50;;;;;;;-0.09;71.36;100646.91;208783;1319;141758;-69
2022/01/22 14:58:17;;;;;;;8.70;5.80;;;;;;;-0.07;71.53;100651.98;206817;1319;139689;-69
2022/01/22 15:03:33;;;;;;;10.00;5.10;;;;;;;-0.11;71.70;100659.33;208622;1318;140292;-69
2022/01/22 15:08:39;;;;;;;10.90;4.00;;;;;;;-0.14;71.86;100664.35;207369;1318;140216;-70
2022/01/22 15:13:42;;;;;;;16.80;6.30;;;;;;;-0.20;71.75;100671.89;207372;1319;139719;-67
2022/01/22 15:18:51;;;;;;;13.30;5.50;;;;;;;-0.25;72.03;100672.51;207411;1318;139463;-68
2022/01/22 15:23:54;;;;;;;8.00;4.40;;;;;;;-0.26;71.77;100678.89;208430;1318;140364;-68
2022/01/22 15:29:22;;;;;;;;;;;;;;;;;;;;;
2022/01/22 15:35:13;;;;;;;17.30;9.10;;;;;;;-0.26;72.02;100697.11;206802;1319;140797;-66
2022/01/22 15:39:51;;;;;;;15.30;8.40;;;;;;;-0.32;72.18;100701.47;206575;1319;140760;-67
2022/01/22 15:44:53;;;;;;;12.40;6.30;;;;;;;-0.40;72.04;100698.17;207435;1318;140928;-66
2022/01/22 15:50:01;;;;;;;12.40;5.90;;;;;;;-0.44;72.20;100703.05;208032;1318;142003;-67
2022/01/22 15:55:08;;;;;;;17.70;6.30;;;;;;;-0.44;72.28;100705.88;207289;1318;141828;-66
2022/01/22 16:00:12;;;;;;;15.60;6.80;;;;;;;-0.49;72.03;100717.87;207077;1321;140104;-65
2022/01/22 16:05:24;;;;;;;12.70;7.70;;;;;;;-0.57;72.46;100722.25;206493;1318;140462;-66
2022/01/22 16:10:28;;;;;;;9.10;5.60;;;;;;;-0.65;72.44;100729.86;207267;1319;141630;-67
2022/01/22 16:15:34;;;;;;;7.50;4.00;;;;;;;-0.73;72.53;100740.98;206709;1318;140870;-65
2022/01/22 16:20:37;;;;;;;11.00;5.10;;;;;;;-0.77;72.51;100748.91;208134;1320;139634;-66
2022/01/22 16:25:49;;;;;;;11.70;5.70;;;;;;;-0.78;72.47;100756.66;208673;1322;140109;-69
2022/01/22 16:30:55;;;;;;;11.90;5.10;;;;;;;-0.79;72.46;100754.75;207288;1319;140030;-68
2022/01/22 16:35:58;;;;;;;10.70;5.40;;;;;;;-0.84;72.58;100754.91;208102;1318;139542;-69
2022/01/22 16:41:00;;;;;;;9.20;4.90;;;;;;;-0.89;72.51;100756.19;209275;1319;140471;-69
2022/01/22 16:57:06;;;;;;;10.60;5.00;;;;;;;-0.82;72.64;100768.66;208673;1318;139790;-68
2022/01/22 17:02:25;;;;;;;9.90;4.50;;;;;;;-0.83;72.63;100774.67;208565;1315;140485;-68
2022/01/22 17:07:43;;;;;;;7.50;5.00;;;;;;;-0.85;72.69;100774.55;208804;1319;139848;-70
2022/01/22 17:18:11;;;;;;;11.30;4.30;;;;;;;-0.86;72.55;100791.93;207606;1319;141729;-65
2022/01/22 17:23:21;;;;;;;12.50;4.70;;;;;;;-0.88;72.62;100792.92;208333;1318;140143;-67
2022/01/22 17:28:24;;;;;;;8.80;5.00;;;;;;;-0.90;72.75;100791.21;207747;1319;140262;-68
2022/01/22 17:34:03;;;;;;;5.80;4.30;;;;;;;-0.95;72.84;100792.69;207707;1316;139789;-69
2022/01/22 17:39:14;;;;;;;11.20;5.30;;;;;;;-0.95;72.80;100785.80;206845;1319;142823;-68
2022/01/22 17:44:44;;;;;;;12.40;5.40;;;;;;;-0.98;72.89;100785.19;206979;1320;142085;-67
2022/01/22 17:49:50;;;;;;;10.10;5.00;;;;;;;-1.02;72.92;100791.77;207028;1319;141529;-67
2022/01/22 17:54:55;;;;;;;12.80;5.20;;;;;;;-1.01;73.01;100785.39;206918;1318;141550;-65
2022/01/22 17:59:58;;;;;;;14.70;6.20;;;;;;;-1.01;73.19;100787.48;208451;1318;141066;-66
2022/01/22 18:05:07;;;;;;;8.40;5.20;;;;;;;-1.02;73.13;100794.38;207652;1319;163477;-68
2022/01/22 18:10:13;;;;;;;13.10;4.60;;;;;;;-1.02;73.28;100800.65;207922;1319;140381;-67
2022/01/22 18:15:16;;;;;;;15.40;5.20;;;;;;;-1.01;73.26;100797.09;207438;1318;140317;-67
2022/01/22 18:20:30;;;;;;;12.80;5.80;;;;;;;-0.98;73.16;100795.95;207967;1319;140991;-70
2022/01/22 18:25:35;;;;;;;12.10;5.60;;;;;;;-0.99;73.19;100798.86;208038;1318;141460;-67
2022/01/22 18:30:38;;;;;;;13.90;4.90;;;;;;;-1.04;73.36;100794.67;208810;1318;140588;-67
2022/01/22 18:35:42;;;;;;;9.10;4.20;;;;;;;-1.07;73.42;100794.10;207693;1318;140589;-67
2022/01/22 18:40:46;;;;;;;11.50;5.70;;;;;;;-1.08;73.32;100800.27;208158;1318;140218;-68
2022/01/22 18:45:53;;;;;;;8.20;5.60;;;;;;;-1.03;73.27;100801.27;209516;1318;142477;-68
2022/01/22 18:51:05;;;;;;;;;;;;;;;;;;;;;
2022/01/22 18:56:11;;;;;;;11.90;5.50;;;;;;;-1.01;73.40;100823.92;209267;1317;141671;-69
2022/01/22 19:01:17;;;;;;;13.90;7.70;;;;;;;-1.03;73.50;100832.66;208421;1318;141203;-69
2022/01/22 19:06:21;;;;;;;16.70;6.40;;;;;;;-1.00;73.26;100843.55;208774;1320;141314;-69
2022/01/22 19:11:23;;;;;;;16.30;6.00;;;;;;;-0.94;73.38;100842.34;207602;1318;141288;-69
2022/01/22 19:16:29;;;;;;;13.00;6.30;;;;;;;-0.90;73.53;100843.56;207881;1318;140081;-69
2022/01/22 19:21:43;;;;;;;8.30;5.10;;;;;;;-0.91;73.40;100842.63;208384;1320;139796;-69
2022/01/22 19:32:29;;;;;;;12.50;6.00;;;;;;;-1.00;73.35;100845.70;206735;1323;142140;-69
2022/01/22 19:37:39;;;;;;;13.70;6.10;;;;;;;-0.97;73.33;100844.52;206555;1318;141024;-67
2022/01/22 19:42:50;;;;;;;10.30;5.30;;;;;;;-0.98;73.45;100845.65;208634;1318;141360;-66
2022/01/22 19:47:56;;;;;;;9.50;5.40;;;;;;;-1.03;73.54;100850.12;207379;1319;143863;-68
2022/01/22 19:53:03;;;;;;;10.40;5.90;;;;;;;-1.08;73.64;100846.66;206933;1318;152154;-73
2022/01/22 19:58:11;;;;;;;14.90;6.70;;;;;;;-1.11;73.62;100842.43;206659;1318;140802;-69
2022/01/22 20:03:14;;;;;;;;;;;;;;;-1.09;73.52;100845.69;207659;1318;141297;-69
2022/01/22 20:08:21;;;;;;;9.10;4.50;;;;;;;-1.11;73.72;100846.09;207803;1318;126460;-67
2022/01/22 20:13:26;;;;;;;13.90;6.30;;;;;;;-1.17;73.53;100848.02;207991;1319;140736;-70
2022/01/22 20:18:32;;;;;;;14.50;6.90;;;;;;;-1.26;73.64;100852.96;207212;1318;140842;-66
2022/01/22 20:23:42;;;;;;;14.20;7.00;;;;;;;-1.31;73.75;100848.69;208600;1318;139730;-69
2022/01/22 20:28:44;;;;;;;17.30;7.90;;;;;;;-1.29;73.76;100842.79;207339;1318;139818;-67
2022/01/22 20:33:47;;;;;;;14.20;7.70;;;;;;;-1.32;73.50;100849.35;207362;1317;139781;-70
2022/01/22 20:38:50;;;;;;;16.70;8.10;;;;;;;-1.43;73.64;100850.59;206665;1318;140567;-67
2022/01/22 20:43:58;;;;;;;21.00;7.10;;;;;;;-1.51;73.87;100846.58;208272;1318;139507;-67
2022/01/22 20:49:02;;;;;;;20.10;6.20;;;;;;;-1.57;73.84;100840.34;207320;1318;140293;-66
2022/01/22 20:54:06;;;;;;;15.10;6.70;;;;;;;-1.56;73.91;100846.70;209219;1317;141721;-67
2022/01/22 20:59:09;;;;;;;14.00;7.70;;;;;;;-1.53;73.82;100847.48;209518;1317;139798;-67
2022/01/22 21:04:15;;;;;;;17.00;7.40;;;;;;;-1.51;73.80;100855.14;208984;1323;141052;-67
2022/01/22 21:09:21;;;;;;;19.60;6.20;;;;;;;-1.54;73.69;100857.30;209237;1319;219802;-68
2022/01/22 21:14:26;;;;;;;11.20;5.70;;;;;;;-1.59;73.74;100862.23;206261;1318;3143557;-69
2022/01/22 21:19:29;;;;;;;13.80;7.20;;;;;;;-1.65;73.79;100872.02;208259;1318;140548;-68
2022/01/22 21:24:34;;;;;;;16.80;6.60;;;;;;;-1.66;73.84;100874.54;208878;1318;140705;-68
2022/01/22 21:29:37;;;;;;;16.80;7.20;;;;;;;-1.64;74.07;100880.29;207511;1318;141786;-66
2022/01/22 21:34:40;;;;;;;20.10;9.40;;;;;;;-1.62;74.13;100866.14;206891;1318;140281;-65
2022/01/22 21:39:49;;;;;;;17.30;6.70;;;;;;;-1.64;74.11;100870.34;207600;1318;140010;-67
2022/01/22 21:44:57;;;;;;;13.70;5.30;;;;;;;-1.68;74.31;100883.72;207406;1318;140313;-67
2022/01/22 21:50:07;;;;;;;15.80;5.70;;;;;;;-1.74;74.17;100889.48;207017;1318;140260;-66
2022/01/22 21:55:10;;;;;;;12.70;7.10;;;;;;;-1.80;74.21;100894.68;207362;1318;139723;-66
2022/01/22 22:00:14;;;;;;;17.80;8.00;;;;;;;-1.80;74.16;100899.23;207489;1318;140078;-67
2022/01/22 22:05:25;;;;;;;17.60;7.40;;;;;;;-1.79;74.33;100891.59;207319;1319;139917;-66
2022/01/22 22:10:33;;;;;;;15.10;8.00;;;;;;;-1.78;74.34;100890.98;206862;1319;140402;-66
2022/01/22 22:15:45;;;;;;;16.60;9.60;;;;;;;-1.81;74.40;100896.28;206830;1318;141098;-66
2022/01/22 22:20:48;;;;;;;21.30;7.10;;;;;;;-1.85;74.40;100891.45;207869;1318;140503;-67
2022/01/22 22:25:53;;;;;;;11.40;6.10;;;;;;;-1.92;74.40;100895.12;207792;1318;141002;-67
2022/01/22 22:30:58;;;;;;;18.60;6.20;;;;;;;-1.95;74.32;100888.60;207107;1318;143128;-67
2022/01/22 22:36:02;;;;;;;18.50;9.20;;;;;;;-1.92;74.43;100891.53;208532;1318;139868;-68
2022/01/22 22:41:07;;;;;;;15.50;6.40;;;;;;;-1.90;74.44;100894.45;207821;1318;142386;-67
2022/01/22 22:46:12;;;;;;;19.40;7.30;;;;;;;-1.92;74.33;100887.48;207012;1318;139682;-65
2022/01/22 22:51:18;;;;;;;19.00;9.60;;;;;;;-1.92;74.56;100889.80;208808;1318;139999;-68
2022/01/22 22:56:27;;;;;;;16.50;7.10;;;;;;;-1.94;74.52;100894.59;208217;1319;140226;-70
2022/01/22 23:01:33;;;;;;;19.70;10.80;;;;;;;-2.00;74.22;100894.80;208904;1318;141398;-70
2022/01/22 23:07:05;;;;;;;16.30;8.20;;;;;;;-2.03;74.23;100893.07;208204;1318;140289;-67
2022/01/22 23:12:17;;;;;;;23.40;9.30;;;;;;;-2.00;74.20;100892.21;208535;1318;140415;-68
2022/01/22 23:25:27;;;;;;;17.60;9.90;;;;;;;-2.08;74.01;100901.83;208213;1318;139684;-65
2022/01/22 23:27:57;;;;;;;20.70;10.30;;;;;;;-2.17;74.22;100911.14;207893;1316;139511;-66
2022/01/22 23:54:19;;;;;;;27.60;13.50;;;;;;;-2.49;74.24;100907.29;208383;1318;140762;-67
2022/01/22 23:59:36;;;;;;;28.80;13.30;;;;;;;-2.49;74.55;100910.06;207536;1318;142167;-68
